Time;durP1;ratioP1;P1;durP2;ratioP2;P2;SDS_P1;SDS_P2;PMS_P1;PMS_P2;Temp;Humidity;BMP_temperature;BMP_pressure;BME280_temperature;BME280_humidity;BME280_pressure;Samples;Min_cycle;Max_cycle;Signal;HPM_P1;HPM_P2
2023/04/17 00:01:25;;;;;;;6.23;4.50;;;;;;;;;;5023028;28;20656;-66
2023/04/17 00:03:52;;;;;;;6.43;4.73;;;;;;;;;;5009675;28;20731;-66
2023/04/17 00:06:19;;;;;;;4.93;4.30;;;;;;;;;;5010221;28;20600;-66
2023/04/17 00:08:45;;;;;;;5.63;4.57;;;;;;;;;;5009697;28;20184;-66
2023/04/17 00:11:12;;;;;;;5.20;4.37;;;;;;;;;;5009456;28;20184;-66
2023/04/17 00:13:39;;;;;;;4.93;4.10;;;;;;;;;;5009694;28;20275;-66
2023/04/17 00:16:06;;;;;;;6.70;5.00;;;;;;;;;;5009123;28;20208;-67
2023/04/17 00:18:32;;;;;;;6.00;4.50;;;;;;;;;;5010046;28;20180;-66
2023/04/17 00:20:59;;;;;;;4.80;3.90;;;;;;;;;;5019937;28;20213;-66
2023/04/17 00:23:26;;;;;;;5.97;4.67;;;;;;;;;;5029291;28;20194;-66
2023/04/17 00:25:52;;;;;;;6.60;4.67;;;;;;;;;;5029224;28;20192;-66
2023/04/17 00:28:19;;;;;;;6.10;4.47;;;;;;;;;;5029347;28;20187;-66
2023/04/17 00:30:46;;;;;;;5.00;4.50;;;;;;;;;;5028789;28;20203;-66
2023/04/17 00:33:13;;;;;;;6.83;4.87;;;;;;;;;;5029210;28;20191;-66
2023/04/17 00:35:39;;;;;;;8.03;4.27;;;;;;;;;;5011202;28;20231;-66
2023/04/17 00:38:08;;;;;;;5.60;4.60;;;;;;;;;;5027169;28;20195;-66
2023/04/17 00:40:34;;;;;;;5.70;4.60;;;;;;;;;;5010922;28;20302;-66
2023/04/17 00:43:03;;;;;;;5.53;4.93;;;;;;;;;;5028883;28;20229;-67
2023/04/17 00:45:35;;;;;;;7.30;4.90;;;;;;;;;;5028984;28;20206;-66
2023/04/17 00:48:03;;;;;;;6.80;4.83;;;;;;;;;;5028565;28;20209;-67
2023/04/17 00:50:30;;;;;;;5.63;4.60;;;;;;;;;;5028631;28;20555;-66
2023/04/17 00:52:57;;;;;;;6.93;4.97;;;;;;;;;;5011090;28;20237;-66
2023/04/17 00:55:24;;;;;;;7.57;4.70;;;;;;;;;;5028396;28;20250;-66
2023/04/17 00:57:51;;;;;;;6.53;5.13;;;;;;;;;;5011079;28;20693;-66
2023/04/17 01:00:18;;;;;;;5.40;4.60;;;;;;;;;;5028383;28;20195;-66
2023/04/17 01:02:45;;;;;;;5.83;4.50;;;;;;;;;;5010583;28;20223;-66
2023/04/17 01:05:12;;;;;;;7.20;5.07;;;;;;;;;;5010978;28;20306;-67
2023/04/17 01:07:40;;;;;;;6.83;5.43;;;;;;;;;;5010806;28;20527;-66
2023/04/17 01:10:07;;;;;;;6.60;5.20;;;;;;;;;;5027031;28;20227;-67
2023/04/17 01:12:34;;;;;;;6.07;4.90;;;;;;;;;;5010910;28;20226;-66
2023/04/17 01:15:01;;;;;;;7.60;5.77;;;;;;;;;;5027972;28;20210;-66
2023/04/17 01:17:29;;;;;;;6.83;5.50;;;;;;;;;;5009271;28;20257;-66
2023/04/17 01:19:56;;;;;;;7.20;5.83;;;;;;;;;;5028184;28;20180;-66
2023/04/17 01:22:23;;;;;;;6.83;5.40;;;;;;;;;;5010338;28;20230;-66
2023/04/17 01:24:54;;;;;;;8.03;5.57;;;;;;;;;;5028225;28;20206;-66
2023/04/17 01:27:23;;;;;;;8.07;5.80;;;;;;;;;;5010717;28;20282;-66
2023/04/17 01:29:50;;;;;;;8.67;5.90;;;;;;;;;;5010019;28;20594;-66
2023/04/17 01:32:18;;;;;;;8.63;6.40;;;;;;;;;;5010466;28;20194;-66
2023/04/17 01:34:45;;;;;;;7.20;6.17;;;;;;;;;;5009925;28;20192;-66
2023/04/17 01:37:11;;;;;;;7.63;6.17;;;;;;;;;;5009788;28;20338;-67
2023/04/17 01:39:39;;;;;;;8.73;6.00;;;;;;;;;;5028231;28;20243;-66
2023/04/17 01:42:06;;;;;;;7.20;6.13;;;;;;;;;;5010111;28;20269;-66
2023/04/17 02:16:22;;;;;;;8.53;6.60;;;;;;;;;;5027174;28;20249;-66
2023/04/17 02:18:49;;;;;;;8.67;6.60;;;;;;;;;;5031232;28;20266;-66
2023/04/17 02:21:16;;;;;;;8.40;6.73;;;;;;;;;;5013834;28;20559;-66
2023/04/17 02:23:43;;;;;;;9.10;6.73;;;;;;;;;;5013700;28;20202;-66
2023/04/17 02:26:11;;;;;;;8.43;7.07;;;;;;;;;;5031298;28;20183;-67
2023/04/17 02:28:38;;;;;;;9.00;8.00;;;;;;;;;;5030683;28;20429;-66
2023/04/17 02:31:06;;;;;;;9.17;7.70;;;;;;;;;;5013398;28;20253;-66
2023/04/17 02:33:33;;;;;;;7.87;6.67;;;;;;;;;;5013881;28;20265;-66
2023/04/17 02:36:00;;;;;;;8.13;7.13;;;;;;;;;;5013516;28;20203;-66
2023/04/17 02:38:36;;;;;;;8.73;7.27;;;;;;;;;;5013337;28;20206;-66
2023/04/17 02:41:04;;;;;;;10.10;7.17;;;;;;;;;;5013135;28;20255;-66
2023/04/17 02:43:31;;;;;;;8.83;7.20;;;;;;;;;;5013365;28;20207;-65
2023/04/17 02:46:00;;;;;;;9.13;7.10;;;;;;;;;;5013175;28;20674;-66
2023/04/17 02:48:27;;;;;;;8.50;6.97;;;;;;;;;;5031151;28;20597;-66
2023/04/17 02:50:53;;;;;;;9.17;7.57;;;;;;;;;;5012989;28;20736;-66
2023/04/17 02:53:20;;;;;;;9.27;7.03;;;;;;;;;;5013102;28;20195;-66
2023/04/17 02:55:48;;;;;;;9.20;7.23;;;;;;;;;;5020156;28;20204;-66
2023/04/17 02:58:17;;;;;;;10.40;8.07;;;;;;;;;;5014959;28;20229;-65
2023/04/17 03:00:44;;;;;;;9.17;7.47;;;;;;;;;;5011443;28;20294;-65
2023/04/17 03:03:14;;;;;;;9.83;7.07;;;;;;;;;;5019704;28;20897;-65
2023/04/17 03:05:41;;;;;;;9.33;7.07;;;;;;;;;;5017348;28;20310;-65
2023/04/17 03:08:08;;;;;;;11.50;8.07;;;;;;;;;;5009478;28;20215;-65
2023/04/17 03:10:47;;;;;;;8.80;7.20;;;;;;;;;;5005935;28;20689;-66
2023/04/17 03:13:13;;;;;;;8.40;6.93;;;;;;;;;;5009514;28;20206;-67
2023/04/17 03:15:41;;;;;;;9.30;7.53;;;;;;;;;;5027892;28;20246;-66
2023/04/17 03:18:07;;;;;;;8.27;6.80;;;;;;;;;;5030234;28;20333;-67
2023/04/17 03:20:34;;;;;;;9.50;7.07;;;;;;;;;;5040493;28;20184;-66
2023/04/17 03:23:02;;;;;;;11.43;7.77;;;;;;;;;;5045060;28;20302;-66
2023/04/17 03:25:29;;;;;;;9.63;7.77;;;;;;;;;;5029343;28;20201;-66
2023/04/17 03:27:56;;;;;;;9.97;7.47;;;;;;;;;;5009363;28;20222;-66
2023/04/17 03:30:29;;;;;;;8.87;7.20;;;;;;;;;;5026744;28;20616;-66
2023/04/17 03:32:59;;;;;;;8.63;7.10;;;;;;;;;;5009465;28;20595;-67
2023/04/17 03:35:30;;;;;;;10.97;8.03;;;;;;;;;;5026588;28;20196;-66
2023/04/17 03:37:57;;;;;;;11.10;9.00;;;;;;;;;;5010077;28;20223;-68
2023/04/17 03:40:24;;;;;;;10.77;8.53;;;;;;;;;;5007230;28;20270;-66
2023/04/17 03:42:51;;;;;;;9.83;8.03;;;;;;;;;;5011035;28;20184;-67
2023/04/17 03:45:18;;;;;;;9.73;8.10;;;;;;;;;;5008481;28;20195;-68
2023/04/17 03:47:46;;;;;;;13.27;8.93;;;;;;;;;;4992183;28;20226;-66
2023/04/17 03:50:16;;;;;;;10.97;8.40;;;;;;;;;;5008881;28;20779;-67
2023/04/17 03:52:49;;;;;;;14.17;10.13;;;;;;;;;;5008535;28;20199;-68
2023/04/17 03:55:17;;;;;;;14.90;10.53;;;;;;;;;;5024677;28;20191;-69
2023/04/17 03:57:47;;;;;;;14.20;9.93;;;;;;;;;;5006829;28;20838;-66
2023/04/17 04:00:15;;;;;;;13.07;9.97;;;;;;;;;;5013247;28;20202;-67
2023/04/17 04:02:45;;;;;;;13.83;9.60;;;;;;;;;;5009409;28;20200;-66
2023/04/17 04:05:17;;;;;;;12.57;10.13;;;;;;;;;;5006406;28;20273;-66
2023/04/17 04:07:44;;;;;;;13.37;9.50;;;;;;;;;;5025199;28;20235;-68
2023/04/17 04:10:18;;;;;;;11.87;9.30;;;;;;;;;;4996897;28;20201;-64
2023/04/17 04:12:46;;;;;;;12.50;9.10;;;;;;;;;;5007394;28;20187;-65
2023/04/17 04:15:14;;;;;;;13.03;9.70;;;;;;;;;;5030816;28;20191;-66
2023/04/17 04:17:43;;;;;;;13.83;10.13;;;;;;;;;;4994854;28;20215;-66
2023/04/17 04:20:10;;;;;;;13.73;9.90;;;;;;;;;;5008815;28;20191;-66
2023/04/17 04:22:40;;;;;;;12.20;9.47;;;;;;;;;;5006750;28;20215;-66
2023/04/17 04:25:07;;;;;;;12.27;9.43;;;;;;;;;;5026191;28;20258;-66
2023/04/17 04:27:48;;;;;;;13.13;10.07;;;;;;;;;;5008720;28;20199;-66
2023/04/17 04:30:21;;;;;;;13.50;10.50;;;;;;;;;;5021332;28;20253;-67
2023/04/17 04:32:51;;;;;;;14.07;10.70;;;;;;;;;;5007937;28;20207;-65
2023/04/17 04:35:18;;;;;;;16.53;11.33;;;;;;;;;;5007140;28;20281;-64
2023/04/17 04:37:45;;;;;;;15.50;10.90;;;;;;;;;;5007438;28;20586;-64
2023/04/17 04:40:13;;;;;;;14.93;10.80;;;;;;;;;;5013263;28;20301;-64
2023/04/17 04:42:48;;;;;;;14.30;11.10;;;;;;;;;;5012122;28;20192;-65
2023/04/17 04:45:22;;;;;;;13.87;10.37;;;;;;;;;;5010559;28;20261;-65
2023/04/17 04:47:49;;;;;;;15.87;10.97;;;;;;;;;;5014518;28;20219;-67
2023/04/17 04:50:16;;;;;;;15.70;11.00;;;;;;;;;;5018420;28;20788;-65
2023/04/17 04:52:43;;;;;;;14.63;10.40;;;;;;;;;;5028419;28;20212;-65
2023/04/17 04:55:25;;;;;;;14.43;10.97;;;;;;;;;;5004597;28;20659;-65
2023/04/17 04:57:55;;;;;;;15.17;11.00;;;;;;;;;;5007998;28;20290;-66
2023/04/17 05:00:22;;;;;;;16.30;11.13;;;;;;;;;;5018779;28;20286;-65
2023/04/17 05:02:53;;;;;;;13.63;10.63;;;;;;;;;;5026703;28;20206;-66
2023/04/17 05:05:24;;;;;;;15.50;11.13;;;;;;;;;;5011815;28;20195;-66
2023/04/17 05:07:53;;;;;;;14.87;10.77;;;;;;;;;;4992247;28;20226;-66
2023/04/17 05:10:24;;;;;;;16.03;11.30;;;;;;;;;;4995858;28;21738;-66
2023/04/17 05:12:57;;;;;;;14.57;11.10;;;;;;;;;;5007125;28;20191;-65
2023/04/17 05:15:25;;;;;;;16.90;11.37;;;;;;;;;;5008115;28;20206;-66
2023/04/17 05:17:52;;;;;;;16.73;11.63;;;;;;;;;;4990521;28;20208;-67
2023/04/17 05:20:25;;;;;;;19.80;12.87;;;;;;;;;;5002679;28;20203;-68
2023/04/17 05:22:56;;;;;;;16.80;11.53;;;;;;;;;;5007585;28;20543;-67
2023/04/17 05:25:25;;;;;;;16.93;11.80;;;;;;;;;;5006130;28;20234;-67
2023/04/17 05:27:54;;;;;;;18.40;12.37;;;;;;;;;;5007534;28;20199;-67
2023/04/17 05:30:21;;;;;;;18.20;12.50;;;;;;;;;;5017509;28;20224;-67
2023/04/17 05:32:57;;;;;;;18.00;12.73;;;;;;;;;;5024985;28;20194;-66
2023/04/17 05:35:32;;;;;;;17.67;12.50;;;;;;;;;;5006995;28;20195;-65
2023/04/17 05:37:58;;;;;;;17.70;12.50;;;;;;;;;;5022975;28;20265;-67
2023/04/17 05:40:25;;;;;;;20.60;13.43;;;;;;;;;;5033924;28;20241;-67
2023/04/17 05:42:53;;;;;;;19.70;12.70;;;;;;;;;;5007830;28;20219;-69
2023/04/17 05:45:19;;;;;;;19.13;13.47;;;;;;;;;;5025659;28;20285;-67
2023/04/17 05:47:49;;;;;;;18.27;13.53;;;;;;;;;;5024548;28;20274;-66
2023/04/17 05:50:16;;;;;;;21.30;14.20;;;;;;;;;;5046651;28;20212;-66
2023/04/17 05:52:46;;;;;;;18.93;13.13;;;;;;;;;;5031755;28;20694;-67
2023/04/17 05:55:13;;;;;;;20.33;13.60;;;;;;;;;;5034070;28;20264;-66
2023/04/17 05:57:42;;;;;;;18.27;12.97;;;;;;;;;;5004423;28;20288;-66
2023/04/17 06:00:12;;;;;;;18.60;12.73;;;;;;;;;;5010104;28;20212;-65
2023/04/17 06:02:49;;;;;;;17.47;13.00;;;;;;;;;;5018858;28;20209;-66
2023/04/17 06:05:26;;;;;;;16.77;12.33;;;;;;;;;;5010999;28;20203;-66
2023/04/17 06:07:54;;;;;;;16.03;11.43;;;;;;;;;;5028226;28;20935;-66
2023/04/17 06:10:23;;;;;;;17.23;11.60;;;;;;;;;;5011017;28;20194;-66
2023/04/17 06:12:49;;;;;;;18.63;12.30;;;;;;;;;;5035790;28;20198;-65
2023/04/17 06:15:17;;;;;;;16.63;11.57;;;;;;;;;;5019471;28;20306;-66
2023/04/17 06:17:44;;;;;;;16.20;11.50;;;;;;;;;;5023447;28;20254;-66
2023/04/17 06:20:12;;;;;;;15.63;10.77;;;;;;;;;;5028841;28;21090;-66
2023/04/17 06:22:39;;;;;;;16.73;11.50;;;;;;;;;;5024451;28;20527;-66
2023/04/17 06:25:06;;;;;;;16.17;12.23;;;;;;;;;;5032780;28;20184;-65
2023/04/17 06:27:32;;;;;;;16.43;11.73;;;;;;;;;;5027129;28;20570;-65
2023/04/17 06:30:03;;;;;;;18.77;13.63;;;;;;;;;;5010478;28;20781;-65
2023/04/17 06:32:34;;;;;;;16.23;12.83;;;;;;;;;;5023619;28;20256;-64
2023/04/17 06:35:01;;;;;;;18.10;11.67;;;;;;;;;;5047974;28;20237;-65
2023/04/17 06:37:40;;;;;;;15.83;10.97;;;;;;;;;;4995635;28;20222;-66
2023/04/17 06:40:08;;;;;;;18.47;10.97;;;;;;;;;;5010464;28;20227;-65
2023/04/17 06:42:35;;;;;;;13.57;10.37;;;;;;;;;;5026715;28;20285;-66
2023/04/17 06:45:02;;;;;;;13.80;10.60;;;;;;;;;;5038209;28;20571;-66
2023/04/17 06:47:29;;;;;;;14.47;10.23;;;;;;;;;;5028336;28;20195;-66
2023/04/17 06:49:58;;;;;;;14.27;9.80;;;;;;;;;;5029263;28;20200;-65
2023/04/17 06:52:25;;;;;;;17.00;11.30;;;;;;;;;;5029706;28;20309;-64
2023/04/17 06:54:55;;;;;;;15.10;11.00;;;;;;;;;;5030713;28;20278;-64
2023/04/17 06:57:21;;;;;;;16.70;10.83;;;;;;;;;;5029399;28;20269;-65
2023/04/17 06:59:48;;;;;;;15.80;10.30;;;;;;;;;;5030714;28;20230;-64
2023/04/17 07:02:15;;;;;;;14.60;10.63;;;;;;;;;;5031058;28;20192;-64
2023/04/17 07:04:42;;;;;;;12.70;9.43;;;;;;;;;;5033225;28;20184;-65
2023/04/17 07:07:09;;;;;;;14.13;9.60;;;;;;;;;;5033393;28;20183;-64
2023/04/17 07:09:35;;;;;;;14.03;10.10;;;;;;;;;;5030815;28;20184;-64
2023/04/17 07:12:05;;;;;;;12.90;10.27;;;;;;;;;;5012666;28;20206;-64
2023/04/17 07:14:32;;;;;;;14.07;10.27;;;;;;;;;;5030350;28;20203;-65
2023/04/17 07:16:59;;;;;;;15.80;9.87;;;;;;;;;;5030441;28;20183;-65
2023/04/17 07:19:26;;;;;;;14.90;10.83;;;;;;;;;;5030518;28;20194;-64
2023/04/17 07:21:52;;;;;;;12.53;9.80;;;;;;;;;;5029708;28;20914;-65
2023/04/17 07:24:19;;;;;;;12.60;9.77;;;;;;;;;;5030666;28;20196;-65
2023/04/17 07:26:46;;;;;;;13.87;10.17;;;;;;;;;;5012766;28;20250;-64
2023/04/17 07:29:12;;;;;;;12.83;9.33;;;;;;;;;;5030213;28;20669;-64
2023/04/17 07:31:40;;;;;;;12.80;9.23;;;;;;;;;;5012466;28;20194;-64
2023/04/17 07:34:06;;;;;;;12.97;9.60;;;;;;;;;;5030372;28;20997;-65
2023/04/17 07:36:33;;;;;;;13.17;9.27;;;;;;;;;;5030232;28;20675;-65
2023/04/17 07:39:00;;;;;;;12.00;8.47;;;;;;;;;;5029159;28;20219;-65
2023/04/17 07:41:26;;;;;;;10.73;8.10;;;;;;;;;;5029918;28;20194;-66
2023/04/17 07:43:53;;;;;;;13.03;9.03;;;;;;;;;;5029882;28;20551;-64
2023/04/17 07:46:22;;;;;;;12.07;8.87;;;;;;;;;;5029639;28;20184;-65
2023/04/17 07:48:49;;;;;;;11.63;9.40;;;;;;;;;;5029847;28;20192;-65
2023/04/17 07:51:16;;;;;;;12.27;9.10;;;;;;;;;;5030332;28;20610;-64
2023/04/17 07:53:44;;;;;;;13.47;8.50;;;;;;;;;;5029592;28;20188;-65
2023/04/17 07:56:11;;;;;;;10.67;7.70;;;;;;;;;;5029167;28;20195;-65
2023/04/17 07:58:38;;;;;;;10.17;7.83;;;;;;;;;;5029442;28;20261;-65
2023/04/17 08:01:05;;;;;;;10.70;8.10;;;;;;;;;;5029661;28;20199;-65
2023/04/17 08:03:31;;;;;;;11.63;8.67;;;;;;;;;;5029811;28;20183;-65
2023/04/17 08:05:59;;;;;;;9.70;7.70;;;;;;;;;;5029709;28;20183;-65
2023/04/17 08:08:25;;;;;;;9.67;6.97;;;;;;;;;;5029675;28;20262;-65
2023/04/17 08:10:52;;;;;;;10.37;7.53;;;;;;;;;;5029350;28;20191;-64
2023/04/17 08:13:19;;;;;;;11.43;7.70;;;;;;;;;;5029749;28;20192;-64
2023/04/17 08:15:46;;;;;;;12.70;8.70;;;;;;;;;;5028461;28;20239;-65
2023/04/17 08:18:13;;;;;;;10.83;7.73;;;;;;;;;;5029561;28;20215;-65
2023/04/17 08:20:39;;;;;;;10.73;7.40;;;;;;;;;;5029343;28;20189;-65
2023/04/17 08:23:06;;;;;;;10.67;7.70;;;;;;;;;;5029190;28;20257;-65
2023/04/17 08:25:33;;;;;;;9.30;7.00;;;;;;;;;;5029291;28;20182;-65
2023/04/17 08:28:00;;;;;;;10.30;7.30;;;;;;;;;;5028817;28;20192;-65
2023/04/17 08:30:26;;;;;;;10.17;6.93;;;;;;;;;;5029193;28;20195;-65
2023/04/17 08:32:54;;;;;;;10.83;7.83;;;;;;;;;;5029108;28;20186;-65
2023/04/17 08:35:21;;;;;;;11.57;7.23;;;;;;;;;;5029089;28;20188;-65
2023/04/17 08:37:48;;;;;;;10.77;7.37;;;;;;;;;;5028946;28;20215;-65
2023/04/17 08:40:15;;;;;;;10.27;7.60;;;;;;;;;;5023013;28;20238;-65
2023/04/17 08:42:43;;;;;;;8.23;6.63;;;;;;;;;;5009403;28;20258;-65
2023/04/17 08:45:10;;;;;;;8.90;6.63;;;;;;;;;;5009187;28;20192;-65
2023/04/17 08:47:37;;;;;;;7.10;5.83;;;;;;;;;;5009338;28;20200;-65
2023/04/17 08:50:08;;;;;;;9.20;7.00;;;;;;;;;;5009115;28;20192;-65
2023/04/17 08:52:43;;;;;;;8.10;6.50;;;;;;;;;;5008865;28;20233;-66
2023/04/17 08:55:10;;;;;;;11.30;6.60;;;;;;;;;;5007777;28;20655;-65
2023/04/17 08:57:56;;;;;;;10.03;6.80;;;;;;;;;;5009320;28;20264;-65
2023/04/17 09:00:30;;;;;;;10.13;6.87;;;;;;;;;;5008914;28;20192;-66
2023/04/17 09:02:57;;;;;;;11.40;7.83;;;;;;;;;;5008912;28;20192;-65
2023/04/17 09:05:25;;;;;;;11.13;8.40;;;;;;;;;;5008691;28;20184;-66
2023/04/17 09:08:04;;;;;;;11.23;8.30;;;;;;;;;;5008541;28;20189;-65
2023/04/17 09:10:38;;;;;;;11.67;8.17;;;;;;;;;;5008632;28;20303;-65
2023/04/17 09:13:05;;;;;;;10.63;7.97;;;;;;;;;;5008629;28;20544;-65
2023/04/17 09:15:33;;;;;;;10.87;8.10;;;;;;;;;;5008761;28;20183;-65
2023/04/17 09:18:01;;;;;;;9.97;7.30;;;;;;;;;;5008420;28;20208;-65
2023/04/17 09:20:28;;;;;;;10.30;7.10;;;;;;;;;;5008419;28;20195;-65
2023/04/17 09:22:57;;;;;;;9.03;6.70;;;;;;;;;;5008619;28;20655;-65
2023/04/17 09:25:25;;;;;;;10.13;6.93;;;;;;;;;;5008555;28;20192;-65
2023/04/17 09:27:51;;;;;;;10.00;7.73;;;;;;;;;;5007616;28;20192;-65
2023/04/17 09:30:19;;;;;;;8.83;6.90;;;;;;;;;;5008508;28;20221;-66
2023/04/17 09:32:46;;;;;;;10.40;7.57;;;;;;;;;;5008445;28;20220;-65
2023/04/17 09:35:22;;;;;;;7.57;6.13;;;;;;;;;;5008403;28;20211;-65
2023/04/17 09:37:53;;;;;;;8.70;6.40;;;;;;;;;;5008251;28;20250;-65
2023/04/17 09:40:20;;;;;;;11.90;7.17;;;;;;;;;;5016910;28;20230;-65
2023/04/17 09:43:00;;;;;;;10.20;7.40;;;;;;;;;;5028234;28;20191;-65
2023/04/17 09:45:34;;;;;;;9.97;6.90;;;;;;;;;;5028097;28;20187;-66
2023/04/17 09:48:02;;;;;;;12.43;8.53;;;;;;;;;;5027580;28;20195;-65
2023/04/17 09:50:29;;;;;;;12.00;8.77;;;;;;;;;;5026668;28;20294;-65
2023/04/17 09:52:56;;;;;;;11.97;8.47;;;;;;;;;;5026594;28;20603;-65
2023/04/17 09:55:23;;;;;;;12.30;7.90;;;;;;;;;;5027678;28;20270;-66
2023/04/17 09:57:54;;;;;;;12.47;8.30;;;;;;;;;;5027031;28;20230;-65
2023/04/17 10:00:22;;;;;;;14.57;8.90;;;;;;;;;;5027876;28;20273;-65
2023/04/17 10:02:52;;;;;;;11.77;8.30;;;;;;;;;;5010142;28;20669;-65
2023/04/17 10:05:20;;;;;;;12.83;8.50;;;;;;;;;;5027813;28;20198;-65
2023/04/17 10:07:46;;;;;;;13.27;8.70;;;;;;;;;;5027769;28;21008;-65
2023/04/17 10:10:25;;;;;;;16.57;10.20;;;;;;;;;;5027484;28;20662;-66
2023/04/17 10:12:54;;;;;;;12.77;9.43;;;;;;;;;;5027662;28;20234;-65
2023/04/17 10:15:20;;;;;;;13.23;9.23;;;;;;;;;;5011208;28;20204;-65
2023/04/17 10:17:48;;;;;;;13.90;9.10;;;;;;;;;;4990206;28;20672;-65
2023/04/17 10:20:16;;;;;;;10.93;7.97;;;;;;;;;;4990427;28;20199;-65
2023/04/17 10:22:43;;;;;;;10.57;8.53;;;;;;;;;;5008215;28;20184;-65
2023/04/17 10:25:11;;;;;;;11.80;7.97;;;;;;;;;;5007822;28;20203;-65
2023/04/17 10:27:41;;;;;;;11.50;8.30;;;;;;;;;;5008305;28;20223;-65
2023/04/17 10:30:09;;;;;;;9.93;7.40;;;;;;;;;;5007440;28;20235;-65
2023/04/17 10:32:36;;;;;;;12.73;7.27;;;;;;;;;;5007650;28;20184;-65
2023/04/17 10:35:14;;;;;;;11.30;7.83;;;;;;;;;;5007601;28;20204;-65
2023/04/17 10:37:50;;;;;;;11.80;8.07;;;;;;;;;;5007836;28;20203;-65
2023/04/17 10:40:22;;;;;;;14.13;7.90;;;;;;;;;;5020827;28;20231;-65
2023/04/17 10:43:00;;;;;;;12.07;8.07;;;;;;;;;;5013446;28;20191;-65
2023/04/17 10:45:47;;;;;;;14.10;8.63;;;;;;;;;;5031113;28;20275;-65
2023/04/17 10:48:34;;;;;;;12.27;8.03;;;;;;;;;;5011448;28;20219;-65
2023/04/17 10:51:01;;;;;;;11.97;8.23;;;;;;;;;;5011469;28;20660;-65
2023/04/17 10:53:46;;;;;;;10.80;7.97;;;;;;;;;;5011111;28;20567;-65
2023/04/17 10:56:31;;;;;;;13.13;7.70;;;;;;;;;;5011144;28;20334;-65
2023/04/17 10:58:59;;;;;;;13.50;8.10;;;;;;;;;;4993634;28;20630;-65
2023/04/17 11:01:30;;;;;;;12.57;8.20;;;;;;;;;;5010949;28;20188;-65
2023/04/17 11:03:58;;;;;;;12.03;8.23;;;;;;;;;;5010851;28;20176;-65
2023/04/17 11:06:26;;;;;;;11.13;8.67;;;;;;;;;;4995680;28;20655;-65
2023/04/17 11:08:55;;;;;;;14.97;8.93;;;;;;;;;;5030586;28;20253;-65
2023/04/17 11:11:23;;;;;;;11.80;8.17;;;;;;;;;;5030653;28;20559;-65
2023/04/17 11:14:09;;;;;;;10.77;7.77;;;;;;;;;;5030454;28;20195;-65
2023/04/17 11:16:41;;;;;;;11.93;8.47;;;;;;;;;;5030387;28;20191;-65
2023/04/17 11:19:08;;;;;;;11.20;8.13;;;;;;;;;;5030128;28;20273;-65
2023/04/17 11:21:40;;;;;;;13.30;8.73;;;;;;;;;;5030919;28;20184;-65
2023/04/17 11:24:07;;;;;;;13.03;8.63;;;;;;;;;;5027951;28;20599;-66
2023/04/17 11:26:51;;;;;;;11.57;8.40;;;;;;;;;;5010502;28;20303;-65
2023/04/17 11:29:18;;;;;;;10.43;7.20;;;;;;;;;;5010250;28;20191;-65
2023/04/17 11:31:45;;;;;;;10.27;7.10;;;;;;;;;;5010734;28;20200;-65
2023/04/17 11:34:14;;;;;;;10.33;6.90;;;;;;;;;;5010196;28;20274;-65
2023/04/17 11:36:50;;;;;;;9.93;7.33;;;;;;;;;;5010656;28;20184;-65
2023/04/17 11:39:18;;;;;;;9.57;6.70;;;;;;;;;;5011566;28;20270;-65
2023/04/17 11:41:45;;;;;;;9.67;7.10;;;;;;;;;;5030100;28;20626;-65
2023/04/17 11:44:12;;;;;;;10.70;6.37;;;;;;;;;;5029741;28;20702;-66
2023/04/17 11:46:39;;;;;;;9.00;6.30;;;;;;;;;;5029466;28;20191;-65
2023/04/17 11:49:07;;;;;;;7.50;5.67;;;;;;;;;;5029500;28;20196;-66
2023/04/17 11:51:34;;;;;;;8.97;6.47;;;;;;;;;;5029613;28;20259;-65
2023/04/17 11:54:00;;;;;;;8.40;6.37;;;;;;;;;;5012150;28;21046;-65
2023/04/17 11:56:28;;;;;;;9.83;6.50;;;;;;;;;;5029857;28;20183;-65
2023/04/17 11:58:59;;;;;;;8.43;6.40;;;;;;;;;;5028591;28;20265;-66
2023/04/17 12:01:26;;;;;;;7.80;6.23;;;;;;;;;;5025326;28;20257;-66
2023/04/17 12:03:53;;;;;;;11.50;7.10;;;;;;;;;;5018313;28;20211;-68
2023/04/17 12:06:20;;;;;;;8.23;6.00;;;;;;;;;;5011932;28;20693;-68
2023/04/17 12:08:56;;;;;;;10.57;7.00;;;;;;;;;;4998491;28;20199;-69
2023/04/17 12:11:33;;;;;;;11.30;7.00;;;;;;;;;;5027351;28;20201;-69
2023/04/17 12:14:00;;;;;;;9.70;6.97;;;;;;;;;;5027323;28;20211;-69
2023/04/17 12:16:28;;;;;;;10.10;7.60;;;;;;;;;;5027144;28;20191;-68
2023/04/17 12:18:55;;;;;;;10.57;7.23;;;;;;;;;;5027408;28;20261;-70
2023/04/17 12:21:25;;;;;;;10.40;7.07;;;;;;;;;;5025073;28;20213;-69
2023/04/17 12:23:54;;;;;;;11.60;7.13;;;;;;;;;;5026294;28;20191;-70
2023/04/17 12:26:20;;;;;;;9.70;7.23;;;;;;;;;;5026639;28;20196;-69
2023/04/17 12:28:47;;;;;;;11.00;7.53;;;;;;;;;;5027333;28;20186;-69
2023/04/17 12:31:17;;;;;;;9.37;7.20;;;;;;;;;;5026315;28;20250;-71
2023/04/17 12:33:44;;;;;;;10.73;7.57;;;;;;;;;;5009640;28;20191;-68
2023/04/17 12:36:11;;;;;;;7.43;6.00;;;;;;;;;;5008699;28;20249;-71
2023/04/17 12:38:41;;;;;;;10.47;7.13;;;;;;;;;;5009297;28;21049;-75
2023/04/17 12:41:08;;;;;;;9.77;7.20;;;;;;;;;;5042979;28;20233;-70
2023/04/17 12:43:35;;;;;;;9.83;7.23;;;;;;;;;;5026950;28;20282;-73
2023/04/17 12:46:02;;;;;;;7.87;5.70;;;;;;;;;;5025762;28;20188;-70
2023/04/17 12:48:29;;;;;;;8.83;6.97;;;;;;;;;;5009407;28;20265;-68
2023/04/17 12:50:59;;;;;;;8.30;5.90;;;;;;;;;;5025048;28;20306;-72
2023/04/17 12:53:26;;;;;;;7.13;5.50;;;;;;;;;;5027046;28;20191;-69
2023/04/17 12:55:53;;;;;;;8.50;6.60;;;;;;;;;;5026492;28;20302;-68
2023/04/17 12:58:19;;;;;;;10.07;7.10;;;;;;;;;;5026545;28;20302;-72
2023/04/17 13:00:50;;;;;;;10.33;7.53;;;;;;;;;;5039861;28;20253;-68
2023/04/17 13:03:17;;;;;;;9.27;6.33;;;;;;;;;;5028339;28;20192;-69
2023/04/17 13:05:45;;;;;;;9.63;7.17;;;;;;;;;;5007549;28;20199;-72
2023/04/17 13:08:13;;;;;;;11.80;8.13;;;;;;;;;;5007113;28;20199;-69
2023/04/17 13:10:41;;;;;;;12.27;9.20;;;;;;;;;;5021501;28;20195;-69
2023/04/17 13:13:08;;;;;;;11.33;8.27;;;;;;;;;;5001211;28;20235;-68
2023/04/17 13:15:35;;;;;;;9.60;7.10;;;;;;;;;;5026052;28;20183;-67
2023/04/17 13:18:02;;;;;;;13.47;8.13;;;;;;;;;;5026038;28;20677;-69
2023/04/17 13:20:29;;;;;;;9.70;6.93;;;;;;;;;;5035806;28;20210;-69
2023/04/17 13:22:58;;;;;;;10.43;7.83;;;;;;;;;;5025833;28;20279;-69
2023/04/17 13:25:25;;;;;;;12.87;8.37;;;;;;;;;;5021382;28;20195;-67
2023/04/17 13:27:54;;;;;;;14.60;8.47;;;;;;;;;;5006625;28;20658;-68
2023/04/17 13:30:21;;;;;;;13.47;8.53;;;;;;;;;;5033613;28;20192;-67
2023/04/17 13:32:48;;;;;;;13.53;9.30;;;;;;;;;;5028669;28;20191;-65
2023/04/17 13:35:15;;;;;;;13.60;9.73;;;;;;;;;;5028646;28;20183;-64
2023/04/17 13:37:42;;;;;;;12.90;8.93;;;;;;;;;;5029162;28;20225;-64
2023/04/17 13:40:12;;;;;;;12.40;9.03;;;;;;;;;;5010775;28;20783;-65
2023/04/17 13:42:41;;;;;;;12.27;9.63;;;;;;;;;;5028088;28;20219;-64
2023/04/17 13:45:08;;;;;;;13.37;9.17;;;;;;;;;;5028811;28;20674;-64
2023/04/17 13:47:35;;;;;;;14.70;9.47;;;;;;;;;;5010728;28;20242;-64
2023/04/17 13:50:02;;;;;;;16.27;9.57;;;;;;;;;;5035461;28;20198;-66
2023/04/17 13:52:29;;;;;;;16.40;9.30;;;;;;;;;;5013880;28;20191;-64
2023/04/17 13:54:55;;;;;;;14.40;9.43;;;;;;;;;;5028303;28;20210;-64
2023/04/17 13:57:22;;;;;;;12.13;8.70;;;;;;;;;;5009617;28;20298;-65
2023/04/17 13:59:49;;;;;;;14.50;9.33;;;;;;;;;;5028922;28;20206;-64
2023/04/17 14:02:15;;;;;;;14.83;9.57;;;;;;;;;;5028131;28;20326;-65
2023/04/17 14:04:42;;;;;;;12.17;8.20;;;;;;;;;;5027759;28;20187;-65
2023/04/17 14:07:11;;;;;;;12.90;9.70;;;;;;;;;;5035238;28;20195;-64
2023/04/17 14:09:38;;;;;;;14.27;9.20;;;;;;;;;;5010968;28;20198;-67
2023/04/17 14:12:05;;;;;;;14.93;9.43;;;;;;;;;;5039577;28;20202;-65
2023/04/17 14:14:32;;;;;;;13.20;8.20;;;;;;;;;;5033386;28;20257;-66
2023/04/17 14:16:59;;;;;;;11.83;8.60;;;;;;;;;;5032263;28;20547;-66
2023/04/17 14:19:26;;;;;;;12.77;8.27;;;;;;;;;;5030647;28;20223;-66
2023/04/17 14:21:53;;;;;;;13.47;8.50;;;;;;;;;;5031812;28;20274;-67
2023/04/17 14:24:20;;;;;;;12.03;7.57;;;;;;;;;;5037055;28;20291;-65
2023/04/17 14:26:47;;;;;;;10.63;7.67;;;;;;;;;;5031920;28;20198;-65
2023/04/17 14:29:19;;;;;;;10.80;7.80;;;;;;;;;;5031796;28;20246;-65
2023/04/17 14:31:46;;;;;;;11.43;8.20;;;;;;;;;;5013909;28;20681;-66
2023/04/17 14:34:13;;;;;;;12.57;8.87;;;;;;;;;;5027322;28;20664;-66
2023/04/17 14:36:41;;;;;;;12.53;9.00;;;;;;;;;;5031924;28;20269;-65
2023/04/17 14:39:09;;;;;;;13.87;8.20;;;;;;;;;;5035654;28;20247;-64
2023/04/17 14:41:36;;;;;;;14.70;9.20;;;;;;;;;;5032550;28;20195;-65
2023/04/17 14:44:06;;;;;;;15.13;8.67;;;;;;;;;;5032296;28;20200;-65
2023/04/17 14:46:33;;;;;;;12.37;7.43;;;;;;;;;;5036432;28;20209;-65
2023/04/17 14:49:00;;;;;;;10.73;7.77;;;;;;;;;;5033480;28;20663;-65
2023/04/17 14:51:27;;;;;;;9.73;7.63;;;;;;;;;;5033449;28;20237;-65
2023/04/17 14:53:56;;;;;;;11.63;8.03;;;;;;;;;;5030140;28;20573;-65
2023/04/17 14:56:23;;;;;;;12.00;7.60;;;;;;;;;;5033336;28;20260;-64
2023/04/17 14:58:51;;;;;;;12.03;8.23;;;;;;;;;;5033237;28;20246;-66
2023/04/17 15:01:17;;;;;;;13.33;9.00;;;;;;;;;;5033348;28;20682;-64
2023/04/17 15:03:45;;;;;;;12.43;8.70;;;;;;;;;;5019981;28;20270;-66
2023/04/17 15:06:14;;;;;;;11.83;8.63;;;;;;;;;;5031129;28;20242;-64
2023/04/17 15:08:41;;;;;;;14.37;8.97;;;;;;;;;;5031214;28;20270;-64
2023/04/17 15:11:08;;;;;;;13.13;8.83;;;;;;;;;;5026447;28;20770;-65